Sturgills, North Carolina
Current Conditions -  °F | °C
As of 4:55 AM on Friday 28 Nov 2014 (Local Time) from KGEV Reporting Station
Overcast Overcast  
Wind Chill: 12°   Ceiling: 2300
Heat Index: 22°   Visibility: 10mi
Dew Point: 12°   Wind: 9mph
Humidity: 66%   Direction: 320°NW
Pressure: 30.18"   Gusts: 22mph
Location:  36.524°N, 81.538°W
Report Text: KGEV 280955Z AUTO 32008G19KT 10SM OVC023 M06/M11 A3018 RMK AO2 T10571111
Loading
Personal Weather Stations






























Interactive Weather Map New forecast layout! Learn more

10-Day Weather Forecast

Advertisements
Track Severe Weather on mobile